createdAt,value
2022-08-09T00:00:11.353Z,14.50
2022-08-09T00:02:49.514Z,14.50
2022-08-09T00:06:18.689Z,14.50
2022-08-09T00:08:12.870Z,14.60
2022-08-09T00:10:58.870Z,14.50
2022-08-09T00:13:25.770Z,14.40
2022-08-09T00:16:00.062Z,14.40
2022-08-09T00:18:35.876Z,14.30
2022-08-09T00:21:07.824Z,14.10
2022-08-09T00:23:56.194Z,14.00
2022-08-09T00:26:32.121Z,13.90
2022-08-09T00:29:01.561Z,13.80
2022-08-09T00:31:50.542Z,13.80
2022-08-09T00:34:19.730Z,13.80
2022-08-09T00:36:50.921Z,13.80
2022-08-09T00:40:12.498Z,13.90
2022-08-09T00:44:10.785Z,13.90
2022-08-09T00:44:53.798Z,14.00
2022-08-09T00:47:21.434Z,14.00
2022-08-09T00:49:54.450Z,14.00
2022-08-09T00:52:22.950Z,14.00
2022-08-09T00:54:58.793Z,13.90
2022-08-09T00:57:34.958Z,13.80
2022-08-09T01:00:21.725Z,13.80
2022-08-09T01:03:06.119Z,13.70
2022-08-09T01:06:17.583Z,13.60
2022-08-09T01:09:23.241Z,13.40
2022-08-09T01:12:00.950Z,13.30
2022-08-09T01:14:35.055Z,13.10
2022-08-09T01:17:09.154Z,13.10
2022-08-09T01:19:57.041Z,12.90
2022-08-09T01:24:00.711Z,12.90
2022-08-09T01:26:31.779Z,13.00
2022-08-09T01:29:00.686Z,13.10
2022-08-09T01:32:29.719Z,13.10
2022-08-09T01:34:20.241Z,13.10
2022-08-09T01:36:49.571Z,13.00
2022-08-09T01:39:17.689Z,12.90
2022-08-09T01:41:55.684Z,13.00
2022-08-09T01:44:29.138Z,13.00
2022-08-09T01:46:59.157Z,12.90
2022-08-09T01:49:28.109Z,12.90
2022-08-09T01:52:14.678Z,12.90
2022-08-09T01:54:53.293Z,12.80
2022-08-09T01:57:40.070Z,12.60
2022-08-09T02:00:35.090Z,12.60
2022-08-09T02:03:00.633Z,12.70
2022-08-09T02:05:38.053Z,12.70
2022-08-09T02:08:38.948Z,12.80
2022-08-09T02:11:16.976Z,12.70
2022-08-09T02:13:55.471Z,12.80
2022-08-09T02:16:52.990Z,12.80
2022-08-09T02:19:34.908Z,12.90
2022-08-09T02:22:13.990Z,12.90
2022-08-09T02:24:46.353Z,12.90
2022-08-09T02:27:43.267Z,12.90
2022-08-09T02:30:11.015Z,12.80
2022-08-09T02:32:43.346Z,12.90
2022-08-09T02:35:23.115Z,12.90
2022-08-09T02:38:02.095Z,12.90
2022-08-09T02:40:30.470Z,12.90
2022-08-09T02:43:00.888Z,12.80
2022-08-09T02:45:32.949Z,12.70
2022-08-09T02:48:05.639Z,12.70
2022-08-09T02:50:45.288Z,12.70
2022-08-09T02:53:26.375Z,12.70
2022-08-09T02:55:58.295Z,12.70
2022-08-09T02:58:36.876Z,12.70
2022-08-09T03:01:11.005Z,12.70
2022-08-09T03:04:13.205Z,12.70
2022-08-09T03:06:31.055Z,12.60
2022-08-09T03:09:01.792Z,12.60
2022-08-09T03:12:09.736Z,12.60
2022-08-09T03:14:21.802Z,12.40
2022-08-09T03:16:55.587Z,12.30
2022-08-09T03:19:52.807Z,12.20
2022-08-09T03:22:30.296Z,12.00
2022-08-09T03:25:21.661Z,12.00
2022-08-09T03:27:51.785Z,11.90
2022-08-09T03:30:29.166Z,11.70
2022-08-09T03:33:05.627Z,11.60
2022-08-09T03:36:16.474Z,11.60
2022-08-09T03:38:32.683Z,11.50
2022-08-09T03:40:59.669Z,11.50
2022-08-09T03:43:32.205Z,11.50
2022-08-09T03:46:04.758Z,11.40
2022-08-09T03:48:52.558Z,11.40
2022-08-09T03:51:56.249Z,11.30
2022-08-09T03:54:14.746Z,11.20
2022-08-09T03:56:42.000Z,11.10
2022-08-09T03:59:21.185Z,11.20
2022-08-09T04:01:56.750Z,11.20
2022-08-09T04:04:32.662Z,11.20
2022-08-09T04:07:06.479Z,11.10
2022-08-09T04:09:42.019Z,11.10
2022-08-09T04:12:31.022Z,11.10
2022-08-09T04:15:01.570Z,11.20
2022-08-09T04:17:29.924Z,11.20
2022-08-09T04:19:58.851Z,11.30
2022-08-09T04:22:29.992Z,11.30
2022-08-09T04:24:59.159Z,11.40
2022-08-09T04:27:26.270Z,11.50
2022-08-09T04:29:56.411Z,11.60
2022-08-09T04:32:33.773Z,11.70
2022-08-09T04:35:08.500Z,11.70
2022-08-09T04:37:45.633Z,11.80
2022-08-09T04:40:28.549Z,11.80
2022-08-09T04:43:06.441Z,11.90
2022-08-09T04:45:35.973Z,11.90
2022-08-09T04:48:20.088Z,12.00
2022-08-09T04:50:46.915Z,12.10
2022-08-09T04:53:17.172Z,12.10
2022-08-09T04:55:58.946Z,12.10
2022-08-09T04:58:31.800Z,12.20
2022-08-09T05:01:00.421Z,12.20
2022-08-09T05:03:40.412Z,12.30
2022-08-09T05:06:25.733Z,12.30
2022-08-09T05:09:00.592Z,12.40
2022-08-09T05:11:30.642Z,12.40
2022-08-09T05:14:05.897Z,12.50
2022-08-09T05:16:58.387Z,12.60
2022-08-09T05:19:26.076Z,12.60
2022-08-09T05:21:59.019Z,12.70
2022-08-09T05:24:27.192Z,12.80
2022-08-09T05:26:54.542Z,12.80
2022-08-09T05:29:22.805Z,13.00
2022-08-09T05:31:56.999Z,13.00
2022-08-09T05:34:30.926Z,13.10
2022-08-09T05:37:06.841Z,13.30
2022-08-09T05:39:43.258Z,13.40
2022-08-09T05:42:17.540Z,13.50
2022-08-09T05:44:52.560Z,13.60
2022-08-09T05:47:21.346Z,13.70
2022-08-09T05:50:34.849Z,13.80
2022-08-09T05:52:36.254Z,13.90
2022-08-09T05:55:08.690Z,14.10
2022-08-09T05:57:51.103Z,14.20
2022-08-09T06:00:23.405Z,14.30
2022-08-09T06:02:54.679Z,14.50
2022-08-09T06:05:30.925Z,14.60
2022-08-09T06:08:12.565Z,14.70
2022-08-09T06:10:39.657Z,14.90
2022-08-09T06:13:19.032Z,15.00
2022-08-09T06:15:50.992Z,15.20
2022-08-09T06:18:23.921Z,15.30
2022-08-09T06:20:54.525Z,15.40
2022-08-09T06:23:55.274Z,15.50
2022-08-09T06:26:20.482Z,15.60
2022-08-09T06:29:00.790Z,15.80
2022-08-09T06:31:39.695Z,15.90
2022-08-09T06:34:22.696Z,16.10
2022-08-09T06:36:57.246Z,16.30
2022-08-09T06:39:38.886Z,16.50
2022-08-09T06:42:14.515Z,16.60
2022-08-09T06:44:41.314Z,16.80
2022-08-09T06:47:10.652Z,17.00
2022-08-09T06:50:11.197Z,17.20
2022-08-09T06:52:25.246Z,17.50
2022-08-09T06:54:52.344Z,17.70
2022-08-09T06:57:42.527Z,18.00
2022-08-09T07:00:52.911Z,18.20
2022-08-09T07:02:57.453Z,18.50
2022-08-09T07:05:24.848Z,18.60
2022-08-09T07:08:11.709Z,18.90
2022-08-09T07:10:38.991Z,19.10
2022-08-09T07:13:27.605Z,19.30
2022-08-09T07:16:41.780Z,19.50
2022-08-09T07:18:40.697Z,19.70
2022-08-09T07:21:08.275Z,20.10
2022-08-09T07:23:36.277Z,20.40
2022-08-09T07:26:04.323Z,20.60
2022-08-09T07:28:34.842Z,20.90
2022-08-09T07:31:04.920Z,21.20
2022-08-09T07:33:52.565Z,22.10
2022-08-09T07:36:20.209Z,24.00
2022-08-09T07:38:58.209Z,26.60
2022-08-09T07:41:27.616Z,28.50
2022-08-09T07:44:01.464Z,30.30
2022-08-09T07:46:28.458Z,32.20
2022-08-09T07:48:59.235Z,33.40
2022-08-09T07:52:03.568Z,34.10
2022-08-09T07:54:14.458Z,34.60
2022-08-09T07:56:49.038Z,35.70
2022-08-09T07:59:34.854Z,36.30
2022-08-09T08:02:05.012Z,37.10
2022-08-09T08:04:32.996Z,37.60
2022-08-09T08:07:21.575Z,37.90
2022-08-09T08:10:04.630Z,38.60
2022-08-09T08:12:36.818Z,39.20
2022-08-09T08:15:04.989Z,39.50
2022-08-09T08:17:52.199Z,39.60
2022-08-09T08:20:28.794Z,40.20
2022-08-09T08:23:03.399Z,40.30
2022-08-09T08:25:44.250Z,40.10
2022-08-09T08:28:14.331Z,40.90
2022-08-09T08:30:43.260Z,41.90
2022-08-09T08:33:11.826Z,42.30
2022-08-09T08:35:53.133Z,42.60
2022-08-09T08:38:25.697Z,42.70
2022-08-09T08:40:56.416Z,43.10
2022-08-09T08:43:27.916Z,42.40
2022-08-09T08:46:10.279Z,42.30
2022-08-09T08:48:51.823Z,42.70
2022-08-09T08:51:22.470Z,42.20
2022-08-09T08:54:03.409Z,42.20
2022-08-09T08:56:37.971Z,40.60
2022-08-09T08:59:19.173Z,41.10
2022-08-09T09:01:56.693Z,41.40
2022-08-09T09:04:29.946Z,40.90
2022-08-09T09:07:07.182Z,39.70
2022-08-09T09:10:01.740Z,39.90
2022-08-09T09:12:29.719Z,39.60
2022-08-09T09:15:00.110Z,39.80
2022-08-09T09:17:48.349Z,39.10
2022-08-09T09:20:15.958Z,38.20
2022-08-09T09:23:01.729Z,39.40
2022-08-09T09:26:04.563Z,39.80
2022-08-09T09:28:58.921Z,40.80
2022-08-09T09:31:17.205Z,41.40
2022-08-09T09:34:21.782Z,41.70
2022-08-09T09:36:54.232Z,40.80
2022-08-09T09:39:42.744Z,41.80
2022-08-09T09:42:25.705Z,42.40
2022-08-09T09:45:01.193Z,42.20
2022-08-09T09:47:32.636Z,42.50
2022-08-09T09:50:15.621Z,40.80
2022-08-09T09:52:54.432Z,40.80
2022-08-09T09:55:28.048Z,41.40
2022-08-09T09:58:16.285Z,41.80
2022-08-09T10:00:55.240Z,42.20
2022-08-09T10:03:57.389Z,40.60
2022-08-09T10:06:32.048Z,39.90
2022-08-09T10:09:21.701Z,40.20
2022-08-09T10:12:14.843Z,40.50
2022-08-09T10:14:49.918Z,39.50
2022-08-09T10:17:51.229Z,40.00
2022-08-09T10:20:26.983Z,39.60
2022-08-09T10:23:28.891Z,39.60
2022-08-09T10:26:11.118Z,40.00
2022-08-09T10:29:20.925Z,40.50
2022-08-09T10:34:52.294Z,40.80
2022-08-09T10:37:21.842Z,41.90
2022-08-09T10:39:51.948Z,42.50
2022-08-09T10:42:21.725Z,42.30
2022-08-09T10:45:04.447Z,42.30
2022-08-09T10:48:16.829Z,42.10
2022-08-09T10:51:09.500Z,42.30
2022-08-09T10:54:13.219Z,43.30
2022-08-09T10:56:46.330Z,42.70
2022-08-09T10:59:57.766Z,42.40
2022-08-09T11:03:10.659Z,42.70
2022-08-09T11:05:31.255Z,42.30
2022-08-09T11:08:43.737Z,40.10
2022-08-09T11:11:17.227Z,40.20
2022-08-09T11:13:54.373Z,40.80
2022-08-09T11:16:41.067Z,41.60
2022-08-09T11:19:17.165Z,40.50
2022-08-09T11:22:16.675Z,40.50
2022-08-09T11:25:01.839Z,41.30
2022-08-09T11:28:05.434Z,41.40
2022-08-09T11:30:38.274Z,41.60
2022-08-09T11:33:08.957Z,39.90
2022-08-09T11:35:56.698Z,39.40
2022-08-09T11:38:35.106Z,39.30
2022-08-09T11:41:15.770Z,39.70
2022-08-09T11:43:49.521Z,38.40
2022-08-09T11:46:32.909Z,36.60
2022-08-09T11:49:05.027Z,36.20
2022-08-09T11:53:02.972Z,36.60
2022-08-09T11:55:34.977Z,35.80
2022-08-09T11:58:19.770Z,35.40
2022-08-09T12:02:01.130Z,35.50
2022-08-09T12:04:20.857Z,34.00
2022-08-09T12:06:58.304Z,33.70
2022-08-09T12:09:33.943Z,33.30
2022-08-09T12:12:12.891Z,32.90
2022-08-09T12:15:04.227Z,33.20
2022-08-09T12:17:41.637Z,33.00
2022-08-09T12:20:24.417Z,32.60
2022-08-09T12:22:57.872Z,32.00
2022-08-09T12:25:36.606Z,32.60
2022-08-09T12:29:13.972Z,33.10
2022-08-09T12:31:58.553Z,33.20
2022-08-09T12:34:13.358Z,33.60
2022-08-09T12:37:21.393Z,34.10
2022-08-09T12:39:44.537Z,34.10
2022-08-09T12:42:16.562Z,33.80
2022-08-09T12:44:51.899Z,33.70
2022-08-09T12:47:22.849Z,33.40
2022-08-09T12:50:09.475Z,33.30
2022-08-09T12:52:58.576Z,33.40
2022-08-09T12:56:15.186Z,32.90
2022-08-09T12:58:27.314Z,32.90
2022-08-09T13:00:56.287Z,32.70
2022-08-09T13:03:54.086Z,32.20
2022-08-09T13:06:45.625Z,31.90
2022-08-09T13:09:22.775Z,31.50
2022-08-09T13:12:01.673Z,31.50
2022-08-09T13:14:41.027Z,31.50
2022-08-09T13:17:58.855Z,31.60
2022-08-09T13:22:33.924Z,32.10
2022-08-09T13:24:06.361Z,32.60
2022-08-09T13:26:50.044Z,32.20
2022-08-09T13:29:33.589Z,31.60
2022-08-09T13:32:19.557Z,31.50
2022-08-09T13:34:54.763Z,31.30
2022-08-09T13:37:52.188Z,30.90
2022-08-09T13:41:51.799Z,30.40
2022-08-09T13:43:05.115Z,30.20
2022-08-09T13:46:42.715Z,30.20
2022-08-09T13:48:24.722Z,30.60
2022-08-09T13:50:55.214Z,30.90
2022-08-09T13:53:36.469Z,31.40
2022-08-09T13:56:12.095Z,31.70
2022-08-09T13:58:39.820Z,31.90
2022-08-09T14:01:13.572Z,31.40
2022-08-09T14:04:02.371Z,31.50
2022-08-09T14:06:32.552Z,31.80
2022-08-09T14:09:05.530Z,32.10
2022-08-09T14:11:33.707Z,32.10
2022-08-09T14:14:26.859Z,32.10
2022-08-09T14:16:57.230Z,32.10
2022-08-09T14:19:30.342Z,31.90
2022-08-09T14:22:01.107Z,31.90
2022-08-09T14:24:32.531Z,31.80
2022-08-09T14:27:01.254Z,31.40
2022-08-09T14:30:34.381Z,31.30
2022-08-09T14:32:19.797Z,31.10
2022-08-09T14:34:57.756Z,31.00
2022-08-09T14:37:28.105Z,30.90
2022-08-09T14:39:55.612Z,30.60
2022-08-09T14:42:40.665Z,30.20
2022-08-09T14:46:54.310Z,30.00
2022-08-09T14:47:59.979Z,29.70
2022-08-09T14:50:47.303Z,29.40
2022-08-09T14:53:14.616Z,29.40
2022-08-09T14:55:50.308Z,29.50
2022-08-09T14:58:17.582Z,29.80
2022-08-09T15:00:48.417Z,30.10
2022-08-09T15:03:20.356Z,30.60
2022-08-09T15:05:52.252Z,30.80
2022-08-09T15:08:23.792Z,30.80
2022-08-09T15:11:01.115Z,30.60
2022-08-09T15:13:56.027Z,30.20
2022-08-09T15:16:19.772Z,29.90
2022-08-09T15:18:48.478Z,29.70
2022-08-09T15:21:57.884Z,29.60
2022-08-09T15:24:12.978Z,29.80
2022-08-09T15:26:45.484Z,30.10
2022-08-09T15:30:48.254Z,30.50
2022-08-09T15:32:00.804Z,30.60
2022-08-09T15:34:34.561Z,30.60
2022-08-09T15:37:03.834Z,30.60
2022-08-09T15:39:34.442Z,30.70
2022-08-09T15:42:15.718Z,30.50
2022-08-09T15:44:46.125Z,30.60
2022-08-09T15:47:14.029Z,30.70
2022-08-09T15:49:41.879Z,30.60
2022-08-09T15:52:27.982Z,30.60
2022-08-09T15:54:54.945Z,30.60
2022-08-09T15:57:34.596Z,30.50
2022-08-09T16:00:25.843Z,30.00
2022-08-09T16:02:55.985Z,29.40
2022-08-09T16:05:47.158Z,29.00
2022-08-09T16:08:30.553Z,28.90
2022-08-09T16:11:02.790Z,28.50
2022-08-09T16:14:02.754Z,28.50
2022-08-09T16:16:20.024Z,28.60
2022-08-09T16:18:53.374Z,28.60
2022-08-09T16:21:25.581Z,28.70
2022-08-09T16:23:58.464Z,28.80
2022-08-09T16:26:33.601Z,28.80
2022-08-09T16:29:11.603Z,28.90
2022-08-09T16:32:20.020Z,28.90
2022-08-09T16:34:53.518Z,28.90
2022-08-09T16:37:50.546Z,28.80
2022-08-09T16:40:08.581Z,28.70
2022-08-09T16:42:35.852Z,28.70
2022-08-09T16:45:04.480Z,28.60
2022-08-09T16:48:39.567Z,28.40
2022-08-09T16:50:29.628Z,28.30
2022-08-09T16:53:01.413Z,28.20
2022-08-09T16:55:44.063Z,28.00
2022-08-09T16:58:16.949Z,28.00
2022-08-09T17:00:44.056Z,28.00
2022-08-09T17:03:21.347Z,27.90
2022-08-09T17:06:07.475Z,27.90
2022-08-09T17:09:00.183Z,27.80
2022-08-09T17:11:41.328Z,27.70
2022-08-09T17:14:25.379Z,27.50
2022-08-09T17:17:01.037Z,27.30
2022-08-09T17:20:05.958Z,27.10
2022-08-09T17:22:24.219Z,27.00
2022-08-09T17:25:03.636Z,26.80
2022-08-09T17:27:33.420Z,26.70
2022-08-09T17:30:04.555Z,26.50
2022-08-09T17:32:37.420Z,26.40
2022-08-09T17:35:11.471Z,26.30
2022-08-09T17:38:11.602Z,26.20
2022-08-09T17:40:31.450Z,26.10
2022-08-09T17:43:11.133Z,26.00
2022-08-09T17:46:03.738Z,25.90
2022-08-09T17:48:35.319Z,25.90
2022-08-09T17:51:18.125Z,25.80
2022-08-09T17:53:52.915Z,25.80
2022-08-09T17:56:27.136Z,25.80
2022-08-09T17:59:01.132Z,25.90
2022-08-09T18:02:03.654Z,25.90
2022-08-09T18:04:19.550Z,25.90
2022-08-09T18:06:54.190Z,25.80
2022-08-09T18:09:21.718Z,25.80
2022-08-09T18:12:05.926Z,25.70
2022-08-09T18:14:37.234Z,25.50
2022-08-09T18:17:18.670Z,25.50
2022-08-09T18:20:55.739Z,25.40
2022-08-09T18:22:51.065Z,25.20
2022-08-09T18:25:19.645Z,25.20
2022-08-09T18:28:02.098Z,25.10
2022-08-09T18:30:40.977Z,25.00
2022-08-09T18:33:15.389Z,25.00
2022-08-09T18:35:59.975Z,24.90
2022-08-09T18:38:27.859Z,24.90
2022-08-09T18:40:55.693Z,24.90
2022-08-09T18:43:23.493Z,24.80
2022-08-09T18:46:49.398Z,24.70
2022-08-09T18:48:37.589Z,24.60
2022-08-09T18:51:04.714Z,24.60
2022-08-09T18:53:44.290Z,24.50
2022-08-09T18:56:27.150Z,24.50
2022-08-09T18:58:56.963Z,24.40
2022-08-09T19:01:24.812Z,24.40
2022-08-09T19:04:00.824Z,24.30
2022-08-09T19:06:34.107Z,24.20
2022-08-09T19:09:02.479Z,24.10
2022-08-09T19:11:37.926Z,24.10
2022-08-09T19:14:06.272Z,24.00
2022-08-09T19:16:36.377Z,23.90
2022-08-09T19:19:23.621Z,23.90
2022-08-09T19:22:04.193Z,23.90
2022-08-09T19:24:39.314Z,23.90
2022-08-09T19:27:20.924Z,23.90
2022-08-09T19:30:21.108Z,23.90
2022-08-09T19:32:36.752Z,23.80
2022-08-09T19:35:04.417Z,23.70
2022-08-09T19:37:52.728Z,23.60
2022-08-09T19:40:19.033Z,23.60
2022-08-09T19:42:53.120Z,23.50
2022-08-09T19:45:20.155Z,23.40
2022-08-09T19:47:47.441Z,23.30
2022-08-09T19:50:50.143Z,23.30
2022-08-09T19:53:04.440Z,23.20
2022-08-09T19:56:01.868Z,23.10
2022-08-09T19:58:30.042Z,22.90
2022-08-09T20:00:58.127Z,22.80
2022-08-09T20:04:25.152Z,22.80
2022-08-09T20:06:23.628Z,22.70
2022-08-09T20:08:59.395Z,22.60
2022-08-09T20:11:33.778Z,22.60
2022-08-09T20:14:13.154Z,22.50
2022-08-09T20:16:53.578Z,22.50
2022-08-09T20:19:47.825Z,22.50
2022-08-09T20:22:14.106Z,22.40
2022-08-09T20:24:42.344Z,22.40
2022-08-09T20:27:11.683Z,22.30
2022-08-09T20:29:41.353Z,22.30
2022-08-09T20:32:33.244Z,22.20
2022-08-09T20:34:57.756Z,22.20
2022-08-09T20:37:25.093Z,22.20
2022-08-09T20:40:16.442Z,22.10
2022-08-09T20:42:38.855Z,22.00
2022-08-09T20:47:54.952Z,21.90
2022-08-09T20:50:47.823Z,21.90
2022-08-09T20:53:22.788Z,21.90
2022-08-09T20:56:01.867Z,21.80
2022-08-09T20:58:32.269Z,21.60
2022-08-09T21:01:32.777Z,21.60
2022-08-09T21:05:49.302Z,21.50
2022-08-09T21:06:41.571Z,21.50
2022-08-09T21:09:11.753Z,21.30
2022-08-09T21:14:31.143Z,20.90
2022-08-09T21:16:59.510Z,20.70
2022-08-09T21:20:17.720Z,20.60
2022-08-09T21:22:23.153Z,20.40
2022-08-09T21:25:20.761Z,20.20
2022-08-09T21:27:52.436Z,20.00
2022-08-09T21:30:22.090Z,19.90
2022-08-09T21:32:49.905Z,19.80
2022-08-09T21:35:17.039Z,19.60
2022-08-09T21:37:58.654Z,19.50
2022-08-09T21:40:30.199Z,19.40
2022-08-09T21:42:58.853Z,19.30
2022-08-09T21:45:26.316Z,19.20
2022-08-09T21:47:53.823Z,19.00
2022-08-09T21:50:35.786Z,18.90
2022-08-09T21:53:15.678Z,18.80
2022-08-09T21:55:50.937Z,18.70
2022-08-09T21:58:17.750Z,18.50
2022-08-09T22:00:44.670Z,18.40
2022-08-09T22:03:25.217Z,18.30
2022-08-09T22:05:52.931Z,18.20
2022-08-09T22:08:27.886Z,18.10
2022-08-09T22:11:50.259Z,18.00
2022-08-09T22:13:43.724Z,18.00
2022-08-09T22:16:11.666Z,17.90
2022-08-09T22:18:52.220Z,17.90
2022-08-09T22:21:45.003Z,17.80
2022-08-09T22:24:17.258Z,17.60
2022-08-09T22:26:51.631Z,17.50
2022-08-09T22:29:19.176Z,17.40
2022-08-09T22:31:56.557Z,17.50
2022-08-09T22:34:26.259Z,17.30
2022-08-09T22:36:55.698Z,17.20
2022-08-09T22:39:56.290Z,17.20
2022-08-09T22:42:21.041Z,17.20
2022-08-09T22:45:00.268Z,17.20
2022-08-09T22:48:16.013Z,17.10
2022-08-09T22:50:25.754Z,17.00
2022-08-09T22:52:54.852Z,16.90
2022-08-09T22:55:39.597Z,16.70
2022-08-09T22:58:20.278Z,16.70
2022-08-09T23:00:59.490Z,16.60
2022-08-09T23:03:31.157Z,16.50
2022-08-09T23:06:14.086Z,16.40
2022-08-09T23:08:44.541Z,16.30
2022-08-09T23:11:18.173Z,16.10
2022-08-09T23:13:46.506Z,16.00
2022-08-09T23:16:16.702Z,15.90
2022-08-09T23:18:45.290Z,15.70
2022-08-09T23:21:14.199Z,15.80
2022-08-09T23:23:41.483Z,15.90
2022-08-09T23:26:11.967Z,16.10
2022-08-09T23:28:38.798Z,16.10
2022-08-09T23:31:05.771Z,16.10
2022-08-09T23:33:32.637Z,15.90
2022-08-09T23:36:04.440Z,15.90
2022-08-09T23:38:33.546Z,15.80
2022-08-09T23:41:01.824Z,15.90
2022-08-09T23:43:28.653Z,15.80
2022-08-09T23:45:55.464Z,15.80
2022-08-09T23:48:22.280Z,15.80
2022-08-09T23:50:49.134Z,15.80
2022-08-09T23:53:15.945Z,15.70
2022-08-09T23:55:49.230Z,15.60
2022-08-09T23:58:25.527Z,15.50
